Time;durP1;ratioP1;P1;durP2;ratioP2;P2;SDS_P1;SDS_P2;PMS_P1;PMS_P2;Temp;Humidity;BMP_temperature;BMP_pressure;BME280_temperature;BME280_humidity;BME280_pressure;Samples;Min_cycle;Max_cycle;Signal;HPM_P1;HPM_P2
2022/02/21 00:00:44;;;;;;;2.03;1.03;;;;;;;8.53;87.12;153551.59;5021135;28;20448;-79
2022/02/21 00:03:21;;;;;;;1.70;0.90;;;;;;;8.54;85.82;153554.19;5024890;28;20432;-79
2022/02/21 00:05:57;;;;;;;2.27;0.87;;;;;;;8.55;84.57;153555.50;5024666;28;20437;-79
2022/02/21 00:08:33;;;;;;;3.23;0.80;;;;;;;8.57;85.10;153560.66;5001790;28;20993;-79
2022/02/21 00:11:08;;;;;;;2.13;0.97;;;;;;;8.56;84.73;153559.38;5007429;28;20896;-79
2022/02/21 00:13:44;;;;;;;2.23;0.90;;;;;;;8.60;83.97;153567.13;4994981;28;20460;-79
2022/02/21 00:16:21;;;;;;;1.60;0.60;;;;;;;8.66;83.44;153583.91;5010843;28;20935;-79
2022/02/21 00:18:57;;;;;;;2.23;1.23;;;;;;;8.75;83.24;153605.91;4992989;28;20511;-79
2022/02/21 00:21:32;;;;;;;2.47;1.00;;;;;;;8.75;82.41;153605.91;5010178;28;20455;-79
2022/02/21 00:24:08;;;;;;;1.00;0.70;;;;;;;8.71;83.67;153595.56;5007524;28;20532;-79
2022/02/21 00:26:43;;;;;;;1.10;0.90;;;;;;;8.75;83.30;153607.19;5023441;28;20448;-78
2022/02/21 00:29:19;;;;;;;1.47;1.00;;;;;;;8.76;81.96;153609.81;5018627;28;20456;-79
2022/02/21 00:31:56;;;;;;;2.23;0.80;;;;;;;8.79;84.41;153616.25;5010386;28;20460;-79
2022/02/21 00:34:32;;;;;;;2.53;0.70;;;;;;;8.79;82.12;153617.50;5014415;28;20464;-79
2022/02/21 00:37:07;;;;;;;3.00;1.00;;;;;;;8.76;83.96;153608.50;5012883;28;20439;-80
2022/02/21 00:39:43;;;;;;;3.37;1.17;;;;;;;8.87;82.68;153638.22;5006806;28;20445;-79
2022/02/21 00:42:21;;;;;;;2.10;1.00;;;;;;;8.83;83.79;153626.59;5025688;28;20540;-79
2022/02/21 00:44:59;;;;;;;2.13;1.00;;;;;;;8.88;82.54;153639.50;5008377;28;20440;-79
2022/02/21 00:47:38;;;;;;;1.33;1.00;;;;;;;8.85;82.64;153631.75;5005636;28;20887;-78
2022/02/21 00:50:14;;;;;;;1.40;0.97;;;;;;;8.84;83.72;153629.19;5020648;28;20479;-80
2022/02/21 00:52:50;;;;;;;2.70;0.93;;;;;;;8.80;85.16;153618.81;5028719;28;20443;-79
2022/02/21 00:55:25;;;;;;;1.30;0.93;;;;;;;8.73;86.37;153602.03;5027757;28;20451;-80
2022/02/21 00:58:01;;;;;;;3.03;1.53;;;;;;;8.79;86.69;153616.25;5029030;28;20582;-79
2022/02/21 01:00:38;;;;;;;1.40;1.20;;;;;;;8.69;88.27;153590.38;5025786;28;20443;-79
2022/02/21 01:03:14;;;;;;;3.17;1.17;;;;;;;8.69;87.44;153590.38;5012771;28;21009;-79
2022/02/21 01:05:50;;;;;;;1.80;1.50;;;;;;;8.68;88.25;153589.13;5025939;28;20436;-79
2022/02/21 01:08:25;;;;;;;2.23;1.10;;;;;;;8.62;87.77;153573.59;5027781;28;20455;-79
2022/02/21 01:11:01;;;;;;;3.33;1.30;;;;;;;8.62;88.65;153572.28;5028947;28;20446;-79
2022/02/21 01:13:37;;;;;;;3.10;1.30;;;;;;;8.59;89.49;153565.81;5044682;28;20459;-79
2022/02/21 01:16:12;;;;;;;1.43;0.70;;;;;;;8.59;89.05;153565.81;5014869;28;20439;-79
2022/02/21 01:18:49;;;;;;;1.90;0.90;;;;;;;8.54;89.60;153554.19;5029628;28;20466;-79
2022/02/21 01:21:25;;;;;;;1.10;0.70;;;;;;;8.52;90.18;153547.75;5015764;28;20455;-79
2022/02/21 01:24:01;;;;;;;2.40;0.77;;;;;;;8.51;91.39;153546.44;5015944;28;20553;-79
2022/02/21 01:26:37;;;;;;;3.23;1.03;;;;;;;8.44;89.96;153528.34;5031305;28;20554;-79
2022/02/21 01:29:14;;;;;;;2.03;0.90;;;;;;;8.43;90.78;153525.75;5034358;28;20486;-79
2022/02/21 01:31:40;;;;;;;1.93;0.83;;;;;;;8.42;91.10;153523.16;5028784;28;20474;-79
2022/02/21 01:34:08;;;;;;;2.07;1.23;;;;;;;8.41;91.27;153520.59;5031296;28;20895;-79
2022/02/21 01:36:35;;;;;;;1.90;0.83;;;;;;;8.39;90.64;153514.13;5032875;28;22493;-79
2022/02/21 01:39:22;;;;;;;2.33;1.00;;;;;;;8.35;90.84;153505.06;5030195;28;20483;-79
2022/02/21 01:41:58;;;;;;;1.53;1.03;;;;;;;8.37;91.48;153510.22;5030210;28;20818;-79
2022/02/21 01:44:37;;;;;;;2.03;0.93;;;;;;;8.29;91.09;153489.56;5027807;28;20551;-79
2022/02/21 01:47:15;;;;;;;1.63;0.80;;;;;;;8.30;90.76;153490.84;5015365;28;20815;-79
2022/02/21 01:49:52;;;;;;;1.37;0.83;;;;;;;8.35;90.61;153505.06;5032013;28;20564;-79
2022/02/21 01:52:29;;;;;;;1.47;0.90;;;;;;;8.34;90.36;153502.47;5030056;28;20531;-79
2022/02/21 01:55:06;;;;;;;2.03;1.00;;;;;;;8.32;90.65;153497.31;5030007;28;20447;-79
2022/02/21 01:57:44;;;;;;;3.00;1.10;;;;;;;8.33;89.72;153499.91;5030380;28;20463;-79
2022/02/21 02:00:20;;;;;;;2.47;1.30;;;;;;;8.41;90.84;153519.28;5014048;28;20436;-79
2022/02/21 02:02:56;;;;;;;1.00;0.80;;;;;;;8.38;90.43;153512.84;5031234;28;20455;-79
2022/02/21 02:05:34;;;;;;;3.30;1.20;;;;;;;8.33;90.68;153498.63;5030031;28;20448;-79
2022/02/21 02:08:10;;;;;;;1.10;0.70;;;;;;;8.34;90.01;153502.47;5047976;28;20944;-79
2022/02/21 02:10:45;;;;;;;1.37;0.90;;;;;;;8.36;90.21;153507.69;5023788;28;20543;-79
2022/02/21 02:13:22;;;;;;;1.50;0.93;;;;;;;8.32;89.69;153497.31;5032224;28;20475;-79
2022/02/21 02:15:58;;;;;;;2.03;0.80;;;;;;;8.34;89.45;153502.47;5027957;28;20457;-79
2022/02/21 02:18:34;;;;;;;1.13;0.80;;;;;;;8.35;89.33;153503.78;5026045;28;20974;-79
2022/02/21 02:21:16;;;;;;;2.70;0.80;;;;;;;8.32;90.12;153497.31;5015087;28;20451;-79
2022/02/21 02:23:55;;;;;;;1.70;0.67;;;;;;;8.32;89.09;153497.31;5029238;28;20448;-79
2022/02/21 02:26:30;;;;;;;1.20;0.70;;;;;;;8.30;89.87;153490.84;5044350;28;20478;-79
2022/02/21 02:29:06;;;;;;;1.00;0.60;;;;;;;8.32;89.49;153497.31;5048052;28;20840;-79
2022/02/21 02:31:43;;;;;;;3.33;0.60;;;;;;;8.32;89.35;153496.00;5032127;28;20451;-79
2022/02/21 02:34:19;;;;;;;3.33;0.80;;;;;;;8.33;88.75;153499.91;5026090;28;20499;-79
2022/02/21 02:36:55;;;;;;;1.93;1.00;;;;;;;8.32;89.56;153496.00;5014255;28;20452;-79
2022/02/21 02:39:32;;;;;;;0.90;0.53;;;;;;;8.28;90.05;153487.00;5029617;28;20456;-79
2022/02/21 02:42:09;;;;;;;0.90;0.63;;;;;;;8.31;91.70;153494.72;5029998;28;20487;-79
2022/02/21 02:44:45;;;;;;;2.60;1.00;;;;;;;8.31;92.80;153494.72;5031355;28;20447;-78
2022/02/21 02:47:21;;;;;;;1.80;1.00;;;;;;;8.26;93.04;153481.75;5048942;28;20444;-78
2022/02/21 02:49:57;;;;;;;1.10;0.63;;;;;;;8.25;94.72;153479.19;5026374;28;20495;-79
2022/02/21 02:52:33;;;;;;;1.93;0.80;;;;;;;8.20;95.31;153464.97;5008785;28;20437;-78
2022/02/21 02:55:11;;;;;;;1.60;1.07;;;;;;;8.19;95.87;153463.66;4995405;28;20535;-79
2022/02/21 02:57:46;;;;;;;1.47;0.80;;;;;;;8.19;94.88;153463.66;5011768;28;20469;-78
2022/02/21 03:00:23;;;;;;;1.43;0.90;;;;;;;8.18;94.67;153461.06;5008480;28;20444;-77
2022/02/21 03:02:58;;;;;;;0.97;0.60;;;;;;;8.19;93.81;153462.38;4994653;28;20465;-80
2022/02/21 03:05:34;;;;;;;1.57;0.80;;;;;;;8.19;93.66;153463.66;5009202;28;20476;-77
2022/02/21 03:08:09;;;;;;;1.87;0.80;;;;;;;8.23;93.95;153472.72;5006156;28;20448;-78
2022/02/21 03:10:46;;;;;;;1.20;0.83;;;;;;;8.24;91.78;153475.28;5008777;28;20444;-77
2022/02/21 03:13:21;;;;;;;3.10;0.97;;;;;;;8.20;93.75;153466.28;5011400;28;20444;-79
2022/02/21 03:15:57;;;;;;;2.67;1.00;;;;;;;8.27;91.67;153484.41;5025842;28;20452;-78
2022/02/21 03:18:32;;;;;;;0.93;0.60;;;;;;;8.27;90.63;153484.41;4993120;28;21023;-78
2022/02/21 03:21:08;;;;;;;3.10;0.90;;;;;;;8.34;91.04;153502.47;5010957;28;20947;-78
2022/02/21 03:23:43;;;;;;;1.77;1.00;;;;;;;8.28;90.29;153487.00;5010414;28;20448;-78
2022/02/21 03:26:20;;;;;;;1.10;0.70;;;;;;;8.32;91.01;153497.31;5002681;28;20457;-78
2022/02/21 03:28:56;;;;;;;4.50;0.63;;;;;;;8.26;90.61;153481.75;5011014;28;21021;-77
2022/02/21 03:31:31;;;;;;;1.17;0.60;;;;;;;8.28;91.63;153485.69;5010321;28;20426;-78
2022/02/21 03:34:07;;;;;;;1.10;0.77;;;;;;;8.27;91.53;153484.41;5005214;28;20492;-78
2022/02/21 03:36:42;;;;;;;1.57;1.00;;;;;;;8.27;91.62;153483.09;5023918;28;20518;-78
2022/02/21 03:39:18;;;;;;;1.00;0.50;;;;;;;8.26;94.86;153480.50;5010393;28;20461;-78
2022/02/21 03:41:54;;;;;;;1.10;0.60;;;;;;;8.24;96.90;153475.28;5008274;28;20539;-78
2022/02/21 03:44:30;;;;;;;0.80;0.63;;;;;;;8.13;98.62;153448.13;5009251;28;20919;-79
2022/02/21 03:47:06;;;;;;;0.90;0.50;;;;;;;8.07;99.03;153432.66;5007926;28;20483;-78
2022/02/21 03:49:42;;;;;;;1.07;0.50;;;;;;;7.51;99.38;153287.97;5018018;28;20478;-78
2022/02/21 03:52:18;;;;;;;0.80;0.30;;;;;;;6.48;94.53;153024.63;5014063;28;20474;-78
2022/02/21 03:54:53;;;;;;;1.00;0.40;;;;;;;5.87;96.41;152869.81;5027508;28;20530;-78
2022/02/21 03:57:30;;;;;;;1.43;0.50;;;;;;;5.50;96.52;152774.31;5027425;28;20454;-79
2022/02/21 04:00:08;;;;;;;0.80;0.40;;;;;;;5.34;99.21;152733.06;5045150;28;20558;-80
2022/02/21 04:02:47;;;;;;;1.27;0.33;;;;;;;4.99;99.64;152644.13;5046092;28;20455;-79
2022/02/21 04:05:22;;;;;;;0.50;0.20;;;;;;;5.03;100.00;152653.16;5011094;28;20444;-79
2022/02/21 04:07:58;;;;;;;0.70;0.30;;;;;;;4.91;100.00;152623.50;5013379;28;20554;-81
2022/02/21 04:10:34;;;;;;;0.70;0.30;;;;;;;4.70;99.10;152570.66;5012007;28;20450;-79
2022/02/21 04:13:11;;;;;;;1.10;0.50;;;;;;;4.71;100.00;152571.97;5030634;28;21032;-78
2022/02/21 04:15:46;;;;;;;1.47;0.50;;;;;;;4.52;100.00;152523.00;5045190;28;20951;-79
2022/02/21 04:18:22;;;;;;;0.60;0.30;;;;;;;4.53;100.00;152526.84;5029356;28;20443;-79
2022/02/21 04:20:57;;;;;;;0.63;0.30;;;;;;;4.37;100.00;152484.38;5028043;28;20431;-78
2022/02/21 04:23:33;;;;;;;0.93;0.33;;;;;;;4.43;100.00;152501.09;5012315;28;20810;-78
2022/02/21 04:26:09;;;;;;;0.83;0.30;;;;;;;4.26;100.00;152457.31;5044911;28;20467;-78
2022/02/21 04:28:46;;;;;;;1.60;0.53;;;;;;;4.35;100.00;152480.47;5027793;28;20455;-78
2022/02/21 04:31:22;;;;;;;2.50;0.60;;;;;;;4.28;99.00;152462.47;5012204;28;20455;-78
2022/02/21 04:33:58;;;;;;;1.70;0.80;;;;;;;4.14;99.28;152427.69;5045421;28;20460;-78
2022/02/21 04:36:34;;;;;;;1.17;0.70;;;;;;;4.13;99.71;152425.09;5027871;28;20526;-78
2022/02/21 04:39:10;;;;;;;1.00;0.70;;;;;;;4.09;98.18;152413.50;5026982;28;20475;-78
2022/02/21 04:41:46;;;;;;;1.07;0.70;;;;;;;4.09;98.58;152413.50;5028071;28;20451;-78
2022/02/21 04:44:23;;;;;;;1.63;0.60;;;;;;;4.04;99.79;152400.63;5045733;28;21024;-78
2022/02/21 04:46:59;;;;;;;2.17;0.90;;;;;;;4.04;98.42;152400.63;5026733;28;20447;-78
2022/02/21 04:49:34;;;;;;;1.97;0.70;;;;;;;4.10;98.94;152416.09;5026433;28;20471;-77
2022/02/21 04:52:10;;;;;;;2.43;0.80;;;;;;;4.04;98.00;152400.63;5046799;28;20462;-78
2022/02/21 04:54:46;;;;;;;2.63;0.97;;;;;;;4.07;99.26;152409.66;5043516;28;20516;-78
2022/02/21 04:57:21;;;;;;;2.10;0.97;;;;;;;4.11;100.00;152418.66;5028454;28;20436;-78
2022/02/21 04:59:59;;;;;;;4.13;0.90;;;;;;;4.03;99.69;152399.34;5017429;28;20482;-78
2022/02/21 05:02:34;;;;;;;1.20;0.77;;;;;;;4.11;97.26;152419.94;5030905;28;20451;-78
2022/02/21 05:05:12;;;;;;;2.87;0.83;;;;;;;4.09;97.80;152413.50;5028710;28;21090;-78
2022/02/21 05:07:48;;;;;;;1.10;0.70;;;;;;;4.12;98.65;152421.25;5029382;28;20483;-78
2022/02/21 05:10:24;;;;;;;1.93;0.90;;;;;;;4.13;98.57;152423.84;5013890;28;20975;-78
2022/02/21 05:13:00;;;;;;;4.00;0.93;;;;;;;4.09;98.51;152414.81;5015414;28;20476;-78
2022/02/21 05:15:37;;;;;;;3.43;1.47;;;;;;;4.09;96.04;152414.81;5015070;28;20463;-78
2022/02/21 05:18:13;;;;;;;4.33;1.00;;;;;;;4.11;93.83;152419.94;5030480;28;20432;-78
2022/02/21 05:20:48;;;;;;;5.00;1.20;;;;;;;4.13;94.49;152423.84;5012565;28;20884;-78
2022/02/21 05:23:24;;;;;;;1.47;0.80;;;;;;;4.18;95.19;152437.97;5028138;28;20443;-78
2022/02/21 05:26:00;;;;;;;1.60;0.90;;;;;;;4.19;95.87;152440.56;5012404;28;20444;-78
2022/02/21 05:28:35;;;;;;;3.73;1.03;;;;;;;4.20;95.84;152441.84;5033495;28;20950;-78
2022/02/21 05:31:12;;;;;;;2.70;1.00;;;;;;;4.17;94.82;152434.13;5031672;28;20521;-78
2022/02/21 05:33:48;;;;;;;5.37;1.10;;;;;;;4.25;94.64;152454.72;5031024;28;20534;-78
2022/02/21 05:36:24;;;;;;;3.90;1.40;;;;;;;4.30;94.61;152468.91;5027976;28;20447;-78
2022/02/21 05:38:59;;;;;;;2.83;1.10;;;;;;;4.35;93.19;152479.19;5028710;28;20502;-78
2022/02/21 05:41:35;;;;;;;4.63;1.30;;;;;;;4.34;94.50;152477.94;5027311;28;20448;-78
2022/02/21 05:44:10;;;;;;;5.47;1.87;;;;;;;4.31;95.77;152471.44;5014241;28;20542;-78
2022/02/21 05:46:47;;;;;;;5.03;1.77;;;;;;;4.33;94.59;152475.34;5028495;28;20447;-78
2022/02/21 05:49:23;;;;;;;4.20;1.20;;;;;;;4.36;94.61;152483.06;4967899;28;1314355;-78
2022/02/21 05:51:59;;;;;;;4.53;1.30;;;;;;;4.34;95.04;152476.63;5031087;28;20202;-78
2022/02/21 05:54:34;;;;;;;6.43;1.83;;;;;;;4.37;95.44;152485.63;5015676;28;21100;-78
2022/02/21 05:57:10;;;;;;;5.00;1.60;;;;;;;4.38;93.27;152488.22;5015022;28;20487;-78
2022/02/21 05:59:46;;;;;;;4.67;1.83;;;;;;;4.39;93.83;152490.81;5015127;28;20904;-78
2022/02/21 06:02:27;;;;;;;3.93;1.63;;;;;;;4.44;91.65;152503.69;5030018;28;20946;-78
2022/02/21 06:05:03;;;;;;;4.60;1.40;;;;;;;4.43;93.79;152501.09;5029409;28;20451;-78
2022/02/21 06:07:39;;;;;;;4.33;1.77;;;;;;;4.42;91.19;152498.50;5048279;28;20808;-78
2022/02/21 06:10:14;;;;;;;2.90;1.10;;;;;;;4.43;89.71;152501.09;5019669;28;20441;-79
2022/02/21 06:12:50;;;;;;;4.03;1.47;;;;;;;4.42;88.80;152498.50;5014845;28;20949;-77
2022/02/21 06:15:25;;;;;;;4.23;1.80;;;;;;;4.44;89.63;152502.38;5044783;28;20858;-78
2022/02/21 06:18:03;;;;;;;3.93;1.37;;;;;;;4.46;88.51;152508.81;5030736;28;20509;-77
2022/02/21 06:20:38;;;;;;;8.47;1.80;;;;;;;4.40;89.95;152492.06;5042074;28;20475;-78
2022/02/21 06:23:14;;;;;;;5.60;1.90;;;;;;;4.41;87.88;152494.66;5030294;28;20455;-78
2022/02/21 06:25:50;;;;;;;2.30;1.57;;;;;;;4.44;90.06;152503.69;5021477;28;20972;-78
2022/02/21 06:28:25;;;;;;;3.23;1.77;;;;;;;4.45;87.37;152504.97;5042740;28;20447;-78
2022/02/21 06:31:01;;;;;;;4.40;1.97;;;;;;;4.45;91.99;152506.22;5028554;28;20451;-78
2022/02/21 06:33:38;;;;;;;2.67;1.17;;;;;;;4.39;87.92;152490.81;5026908;28;20459;-79
2022/02/21 06:36:13;;;;;;;5.70;1.70;;;;;;;4.38;90.66;152486.91;5011669;28;20440;-78
2022/02/21 06:38:49;;;;;;;2.53;1.33;;;;;;;4.39;92.17;152490.81;5045029;28;20502;-78
2022/02/21 06:41:26;;;;;;;5.87;1.80;;;;;;;4.39;89.92;152489.50;5027838;28;20450;-78
2022/02/21 06:44:01;;;;;;;4.00;1.13;;;;;;;4.38;89.51;152486.91;5028986;28;20554;-79
2022/02/21 06:46:37;;;;;;;2.20;1.10;;;;;;;4.41;91.77;152494.66;5032124;28;20538;-79
2022/02/21 06:49:13;;;;;;;2.03;1.43;;;;;;;4.39;89.68;152490.81;5035203;28;20470;-80
2022/02/21 06:51:49;;;;;;;4.87;1.43;;;;;;;4.35;90.00;152480.47;5016037;28;20446;-79
2022/02/21 06:54:26;;;;;;;4.27;1.20;;;;;;;4.36;90.09;152483.06;5032577;28;20452;-79
2022/02/21 06:57:01;;;;;;;3.20;1.93;;;;;;;4.38;90.62;152486.91;5028628;28;20446;-79
2022/02/21 06:59:37;;;;;;;3.47;1.63;;;;;;;4.37;91.63;152485.63;5014173;28;20482;-79
2022/02/21 07:02:12;;;;;;;9.63;2.07;;;;;;;4.42;89.29;152498.50;5029709;28;20961;-79
2022/02/21 07:04:50;;;;;;;3.27;1.90;;;;;;;4.38;88.91;152486.91;5028935;28;20458;-79
2022/02/21 07:07:25;;;;;;;4.27;1.90;;;;;;;4.36;89.80;152483.06;5045614;28;20463;-79
2022/02/21 07:10:00;;;;;;;7.23;1.57;;;;;;;4.33;87.47;152475.34;5030134;28;20839;-79
2022/02/21 07:12:36;;;;;;;3.47;1.13;;;;;;;4.35;86.93;152479.19;5031968;28;20446;-79
2022/02/21 07:15:11;;;;;;;4.43;1.63;;;;;;;4.27;84.90;152459.88;5032349;28;20442;-79
2022/02/21 07:17:47;;;;;;;5.10;1.40;;;;;;;4.20;84.87;152441.84;5030487;28;20829;-79
2022/02/21 07:20:25;;;;;;;3.03;1.43;;;;;;;4.14;84.72;152427.69;5032487;28;20466;-79
2022/02/21 07:23:01;;;;;;;2.47;1.50;;;;;;;4.07;85.16;152409.66;5029129;28;20435;-79
2022/02/21 07:25:37;;;;;;;7.80;1.57;;;;;;;4.22;84.95;152447.00;5030153;28;20459;-79
2022/02/21 07:28:15;;;;;;;4.10;1.50;;;;;;;4.48;81.64;152513.97;5029560;28;20443;-79
2022/02/21 07:30:50;;;;;;;6.03;2.00;;;;;;;4.76;79.90;152584.84;5032131;28;20443;-79
2022/02/21 07:33:26;;;;;;;5.40;1.73;;;;;;;4.98;80.11;152640.28;5032051;28;20785;-79
2022/02/21 07:36:03;;;;;;;3.83;1.60;;;;;;;5.13;76.97;152680.22;5029563;28;20952;-79
2022/02/21 07:38:38;;;;;;;4.13;1.60;;;;;;;5.34;77.33;152733.06;5049439;28;20536;-79
2022/02/21 07:41:14;;;;;;;5.40;1.70;;;;;;;5.38;79.27;152744.66;5050560;28;20470;-80
2022/02/21 07:43:49;;;;;;;4.23;1.67;;;;;;;5.52;81.35;152779.47;5046699;28;20439;-80
2022/02/21 07:46:26;;;;;;;3.43;1.23;;;;;;;5.71;74.47;152828.47;5032312;28;20541;-80
2022/02/21 07:49:02;;;;;;;6.80;1.60;;;;;;;5.84;76.40;152860.72;5042809;28;20482;-80
2022/02/21 07:51:39;;;;;;;3.80;1.93;;;;;;;5.99;75.00;152900.75;5008341;28;20822;-79
2022/02/21 07:54:15;;;;;;;4.30;1.73;;;;;;;6.22;74.07;152958.81;5004667;28;20452;-80
2022/02/21 07:56:51;;;;;;;6.17;1.97;;;;;;;6.15;73.81;152940.72;4991225;28;20495;-80
2022/02/21 07:59:26;;;;;;;3.77;1.40;;;;;;;6.39;72.41;153001.38;4994879;28;20458;-80
2022/02/21 08:02:02;;;;;;;5.80;2.50;;;;;;;6.32;74.43;152983.31;5022187;28;20453;-80
2022/02/21 08:04:38;;;;;;;4.13;1.47;;;;;;;6.38;73.68;152998.81;4993204;28;20460;-80
2022/02/21 08:07:15;;;;;;;5.50;1.77;;;;;;;6.52;72.20;153034.91;4993632;28;20464;-80
2022/02/21 08:09:50;;;;;;;4.30;1.90;;;;;;;6.56;70.73;153045.25;4992243;28;20456;-80
2022/02/21 08:12:26;;;;;;;7.27;1.57;;;;;;;6.71;74.37;153083.97;4993823;28;20793;-80
2022/02/21 08:15:02;;;;;;;6.83;1.93;;;;;;;6.55;74.06;153043.97;5003014;28;20906;-80
2022/02/21 08:17:39;;;;;;;5.17;1.70;;;;;;;6.50;72.70;153029.75;4990165;28;20483;-80
2022/02/21 08:20:15;;;;;;;5.67;1.93;;;;;;;6.45;71.86;153016.88;4991184;28;20855;-80
2022/02/21 08:22:53;;;;;;;4.70;1.77;;;;;;;6.27;75.55;152970.41;5010039;28;20531;-80
2022/02/21 08:25:28;;;;;;;4.80;2.20;;;;;;;6.03;74.98;152911.09;4991136;28;20440;-80
2022/02/21 08:28:05;;;;;;;4.33;1.90;;;;;;;6.06;75.13;152918.78;5007561;28;20581;-80
2022/02/21 08:30:41;;;;;;;2.70;1.23;;;;;;;6.17;73.46;152945.88;4994001;28;20444;-80
2022/02/21 08:33:16;;;;;;;4.00;1.53;;;;;;;6.10;73.67;152929.13;5022661;28;20444;-80
2022/02/21 08:35:52;;;;;;;3.27;1.50;;;;;;;6.11;74.99;152931.72;5021685;28;20541;-80
2022/02/21 08:38:29;;;;;;;9.13;1.90;;;;;;;6.26;77.06;152967.81;5005094;28;20468;-80
2022/02/21 08:41:05;;;;;;;4.90;2.10;;;;;;;6.43;74.60;153011.72;5025528;28;20452;-80
2022/02/21 08:43:40;;;;;;;3.83;1.30;;;;;;;6.52;74.98;153034.91;5008011;28;20951;-80
2022/02/21 08:46:16;;;;;;;5.00;1.70;;;;;;;6.41;70.53;153007.81;4992404;28;20553;-80
2022/02/21 08:48:54;;;;;;;2.07;1.50;;;;;;;6.34;73.67;152988.47;5010993;28;20973;-80
2022/02/21 08:51:29;;;;;;;7.13;2.00;;;;;;;6.48;70.92;153024.63;5047692;28;20446;-80
2022/02/21 08:54:09;;;;;;;6.50;1.80;;;;;;;6.50;71.00;153031.06;5030838;28;20481;-80
2022/02/21 08:56:44;;;;;;;3.00;1.57;;;;;;;6.39;75.72;153001.38;5050599;28;20446;-80
2022/02/21 08:59:20;;;;;;;5.80;1.80;;;;;;;6.42;75.33;153009.13;5028444;28;20812;-80
2022/02/21 09:01:55;;;;;;;5.30;1.87;;;;;;;6.58;75.30;153050.41;5047048;28;20549;-80
2022/02/21 09:04:31;;;;;;;5.27;2.03;;;;;;;6.44;73.50;153015.56;5014132;28;20794;-80
2022/02/21 09:07:06;;;;;;;4.87;1.97;;;;;;;6.53;74.94;153037.50;5026557;28;20452;-80
2022/02/21 09:09:43;;;;;;;3.37;1.77;;;;;;;6.61;72.49;153058.16;5020292;28;20450;-80
2022/02/21 09:12:19;;;;;;;2.03;0.90;;;;;;;6.79;74.64;153104.63;5029748;28;20438;-80
2022/02/21 09:14:56;;;;;;;3.90;1.83;;;;;;;6.78;73.17;153102.03;5031730;28;20443;-80
2022/02/21 09:17:31;;;;;;;4.00;1.23;;;;;;;6.80;73.24;153107.22;5029199;28;20530;-80
2022/02/21 09:20:08;;;;;;;7.87;1.93;;;;;;;6.87;72.85;153125.28;5030195;28;20478;-80
2022/02/21 09:22:44;;;;;;;6.10;1.70;;;;;;;6.76;72.31;153096.88;5023318;28;20446;-80
2022/02/21 09:25:22;;;;;;;9.77;1.70;;;;;;;6.78;74.80;153102.03;5026788;28;21001;-80
2022/02/21 09:27:57;;;;;;;3.87;1.47;;;;;;;6.81;72.40;153109.78;5017195;28;20953;-80
2022/02/21 09:30:33;;;;;;;3.43;1.50;;;;;;;6.85;74.60;153120.13;5017471;28;20443;-80
2022/02/21 09:33:09;;;;;;;6.23;2.00;;;;;;;6.92;73.62;153136.88;5013870;28;20446;-80
2022/02/21 09:35:44;;;;;;;4.63;1.70;;;;;;;7.09;70.65;153182.09;5027546;28;20450;-80
2022/02/21 09:38:20;;;;;;;7.60;1.83;;;;;;;7.01;72.88;153161.44;5050625;28;20450;-80
2022/02/21 09:40:57;;;;;;;2.97;1.93;;;;;;;7.02;71.67;153162.69;5033347;28;20458;-80
2022/02/21 09:43:33;;;;;;;3.33;1.80;;;;;;;7.05;70.49;153171.75;5029529;28;20444;-80
2022/02/21 09:46:11;;;;;;;5.27;1.83;;;;;;;7.08;70.29;153179.50;5032490;28;20495;-80
2022/02/21 09:48:48;;;;;;;7.60;2.50;;;;;;;7.03;72.61;153166.59;5035076;28;20459;-80
2022/02/21 09:51:24;;;;;;;3.30;1.17;;;;;;;7.01;72.82;153161.44;5050644;28;20454;-80
2022/02/21 09:53:59;;;;;;;4.67;2.00;;;;;;;6.92;70.31;153136.88;5016582;28;20479;-79
2022/02/21 09:56:36;;;;;;;3.00;1.13;;;;;;;6.82;73.23;153111.06;5033100;28;20450;-80
2022/02/21 09:59:12;;;;;;;3.60;1.40;;;;;;;6.83;73.12;153113.69;5034083;28;20454;-79
2022/02/21 10:01:47;;;;;;;3.27;1.00;;;;;;;6.85;72.41;153120.13;5014982;28;20497;-79
2022/02/21 10:04:24;;;;;;;2.83;1.43;;;;;;;7.01;70.29;153161.44;5019082;28;20455;-80
2022/02/21 10:07:01;;;;;;;4.10;1.60;;;;;;;6.94;68.55;153142.03;5048900;28;20793;-79
2022/02/21 10:09:39;;;;;;;6.47;1.60;;;;;;;6.97;71.38;153151.09;5033727;28;20451;-79
2022/02/21 10:12:23;;;;;;;2.73;1.33;;;;;;;7.15;70.44;153197.56;5025155;28;20479;-79
2022/02/21 10:14:59;;;;;;;4.10;1.50;;;;;;;7.15;67.99;153197.56;5019008;28;20536;-79
2022/02/21 10:17:35;;;;;;;3.07;1.30;;;;;;;6.99;71.27;153155.00;5033530;28;20454;-79
2022/02/21 10:20:11;;;;;;;4.20;1.37;;;;;;;7.00;67.99;153157.53;5049826;28;20459;-80
2022/02/21 10:23:02;;;;;;;4.47;1.57;;;;;;;6.99;69.47;153155.00;5033962;28;20493;-80
2022/02/21 10:25:38;;;;;;;3.53;1.23;;;;;;;6.90;70.26;153133.03;5032988;28;20466;-79
2022/02/21 10:28:24;;;;;;;3.83;1.40;;;;;;;6.96;69.50;153148.53;5017845;28;20981;-80
2022/02/21 10:31:11;;;;;;;3.60;1.83;;;;;;;6.85;67.97;153120.13;5018124;28;20439;-79
2022/02/21 10:33:59;;;;;;;5.43;1.70;;;;;;;6.87;70.50;153125.28;5032052;28;20474;-79
2022/02/21 10:36:36;;;;;;;5.20;1.50;;;;;;;6.88;66.96;153127.88;5031593;28;20463;-79
2022/02/21 10:39:14;;;;;;;3.03;1.90;;;;;;;6.80;68.78;153105.91;5032162;28;20454;-80
2022/02/21 10:41:51;;;;;;;2.47;1.40;;;;;;;6.83;68.32;153114.94;5027897;28;20463;-80
2022/02/21 10:44:30;;;;;;;3.53;1.20;;;;;;;6.86;65.23;153122.69;5033400;28;20497;-79
2022/02/21 10:47:14;;;;;;;2.37;1.10;;;;;;;6.84;64.71;153117.53;5037225;28;20447;-79
2022/02/21 10:49:51;;;;;;;2.97;1.23;;;;;;;6.81;64.65;153109.78;5028235;28;20514;-79
2022/02/21 10:52:28;;;;;;;6.37;2.20;;;;;;;6.66;67.01;153072.38;5045898;28;20847;-79
2022/02/21 10:55:05;;;;;;;4.00;1.37;;;;;;;6.63;69.70;153063.31;5031083;28;20475;-79
2022/02/21 10:57:42;;;;;;;4.37;1.27;;;;;;;6.73;67.81;153089.13;5016537;28;20473;-80
2022/02/21 11:00:19;;;;;;;5.03;1.93;;;;;;;6.82;65.91;153112.38;5031527;28;20458;-79
2022/02/21 11:02:56;;;;;;;1.70;1.03;;;;;;;6.86;63.40;153122.69;5032451;28;20447;-79
2022/02/21 11:05:32;;;;;;;2.60;1.03;;;;;;;6.89;63.33;153129.13;5028767;28;20443;-80
2022/02/21 11:08:08;;;;;;;3.17;1.00;;;;;;;6.88;62.91;153126.59;5028048;28;20450;-79
2022/02/21 11:10:45;;;;;;;4.50;1.70;;;;;;;6.87;62.83;153125.28;5017972;28;20454;-80
2022/02/21 11:13:21;;;;;;;3.43;1.17;;;;;;;6.82;68.54;153111.06;5021317;28;20477;-79
2022/02/21 11:15:58;;;;;;;3.50;1.27;;;;;;;6.96;67.34;153148.53;5017199;28;20454;-79
2022/02/21 11:18:35;;;;;;;4.03;1.40;;;;;;;6.95;65.09;153145.94;5028750;28;20477;-80
2022/02/21 11:21:11;;;;;;;3.43;1.00;;;;;;;7.02;63.83;153162.69;5030541;28;20463;-79
2022/02/21 11:23:46;;;;;;;3.67;1.33;;;;;;;7.00;65.62;153158.84;5008896;28;20451;-79
2022/02/21 11:26:26;;;;;;;2.20;1.10;;;;;;;6.92;64.69;153138.19;5033070;28;20521;-79
2022/02/21 11:29:05;;;;;;;4.17;1.10;;;;;;;6.93;64.53;153140.78;5030284;28;20787;-79
2022/02/21 11:31:42;;;;;;;3.20;1.50;;;;;;;6.88;64.68;153127.88;5047956;28;20450;-79
2022/02/21 11:34:18;;;;;;;2.90;1.20;;;;;;;6.92;68.45;153138.19;5026862;28;20541;-79
2022/02/21 11:36:59;;;;;;;2.33;1.17;;;;;;;6.84;68.34;153117.53;5016601;28;20439;-79
2022/02/21 11:39:39;;;;;;;1.47;0.83;;;;;;;6.82;68.94;153111.06;5024479;28;20455;-79
2022/02/21 11:42:18;;;;;;;2.50;1.57;;;;;;;6.79;67.49;153103.31;5050142;28;20479;-79
2022/02/21 11:44:58;;;;;;;1.67;1.03;;;;;;;6.83;68.74;153114.94;5017208;28;20451;-79
2022/02/21 11:47:37;;;;;;;2.10;1.13;;;;;;;6.69;68.22;153080.13;5018914;28;20945;-80
2022/02/21 11:50:24;;;;;;;2.90;1.20;;;;;;;6.66;69.86;153071.06;5026077;28;20475;-80
2022/02/21 11:53:14;;;;;;;4.23;1.20;;;;;;;6.70;72.01;153082.66;5028387;28;20855;-80
2022/02/21 11:55:51;;;;;;;3.63;1.20;;;;;;;6.65;70.79;153068.47;5044882;28;20439;-79
2022/02/21 11:58:37;;;;;;;4.33;1.50;;;;;;;6.61;72.64;153059.47;5013052;28;20447;-80
2022/02/21 12:01:22;;;;;;;5.03;1.20;;;;;;;6.76;71.20;153096.88;5024295;28;20495;-80
2022/02/21 12:04:17;;;;;;;2.83;1.40;;;;;;;6.80;73.02;153107.22;5046225;28;20440;-79
2022/02/21 12:06:58;;;;;;;3.20;1.40;;;;;;;6.93;72.05;153140.78;5029373;28;20447;-79
2022/02/21 12:09:33;;;;;;;2.00;0.80;;;;;;;7.01;70.31;153160.13;5025776;28;20550;-80
2022/02/21 12:12:22;;;;;;;1.87;1.27;;;;;;;7.14;69.51;153195.00;5023167;28;20443;-79
2022/02/21 12:15:10;;;;;;;5.90;1.80;;;;;;;7.21;67.73;153213.06;5042467;28;20444;-78
2022/02/21 12:17:46;;;;;;;2.30;1.23;;;;;;;7.29;65.22;153233.72;5029600;28;20448;-78